sensor_id;sensor_type;location;lat;lon;timestamp;temperature;humidity
67101;DHT22;54019;61.746;16.106;2023-05-07T00:00:03;20.90;25.30
67101;DHT22;54019;61.746;16.106;2023-05-07T00:02:29;20.90;25.20
67101;DHT22;54019;61.746;16.106;2023-05-07T00:04:55;20.90;25.40
67101;DHT22;54019;61.746;16.106;2023-05-07T00:07:21;20.90;25.30
67101;DHT22;54019;61.746;16.106;2023-05-07T00:09:46;20.90;25.50
67101;DHT22;54019;61.746;16.106;2023-05-07T00:12:12;20.90;25.80
67101;DHT22;54019;61.746;16.106;2023-05-07T00:14:38;20.80;25.80
67101;DHT22;54019;61.746;16.106;2023-05-07T00:17:05;20.80;26.00
67101;DHT22;54019;61.746;16.106;2023-05-07T00:19:31;20.80;25.90
67101;DHT22;54019;61.746;16.106;2023-05-07T00:21:57;20.80;25.70
67101;DHT22;54019;61.746;16.106;2023-05-07T00:24:22;20.80;25.60
67101;DHT22;54019;61.746;16.106;2023-05-07T00:26:48;20.80;25.10
67101;DHT22;54019;61.746;16.106;2023-05-07T00:29:14;20.80;25.00
67101;DHT22;54019;61.746;16.106;2023-05-07T00:31:40;20.90;25.60
67101;DHT22;54019;61.746;16.106;2023-05-07T00:34:07;21.00;24.80
67101;DHT22;54019;61.746;16.106;2023-05-07T00:36:33;21.00;24.90
67101;DHT22;54019;61.746;16.106;2023-05-07T00:38:59;21.00;24.90
67101;DHT22;54019;61.746;16.106;2023-05-07T00:41:25;21.00;24.90
67101;DHT22;54019;61.746;16.106;2023-05-07T00:43:51;21.00;24.90
67101;DHT22;54019;61.746;16.106;2023-05-07T00:46:18;21.00;24.90
67101;DHT22;54019;61.746;16.106;2023-05-07T00:48:45;21.00;24.90
67101;DHT22;54019;61.746;16.106;2023-05-07T00:51:12;21.00;24.80
67101;DHT22;54019;61.746;16.106;2023-05-07T00:53:39;21.00;24.90
67101;DHT22;54019;61.746;16.106;2023-05-07T00:56:06;20.90;24.80
67101;DHT22;54019;61.746;16.106;2023-05-07T00:58:32;20.90;24.80
67101;DHT22;54019;61.746;16.106;2023-05-07T01:00:58;20.90;24.80
67101;DHT22;54019;61.746;16.106;2023-05-07T01:03:23;20.90;24.80
67101;DHT22;54019;61.746;16.106;2023-05-07T01:05:50;20.80;24.70
67101;DHT22;54019;61.746;16.106;2023-05-07T01:08:18;20.80;25.00
67101;DHT22;54019;61.746;16.106;2023-05-07T01:10:44;20.80;25.20
67101;DHT22;54019;61.746;16.106;2023-05-07T01:13:11;20.80;25.10
67101;DHT22;54019;61.746;16.106;2023-05-07T01:15:38;20.80;25.20
67101;DHT22;54019;61.746;16.106;2023-05-07T01:18:04;20.80;24.90
67101;DHT22;54019;61.746;16.106;2023-05-07T01:20:30;20.80;24.80
67101;DHT22;54019;61.746;16.106;2023-05-07T01:22:57;20.80;24.60
67101;DHT22;54019;61.746;16.106;2023-05-07T01:25:23;20.80;24.60
67101;DHT22;54019;61.746;16.106;2023-05-07T01:27:49;20.90;24.70
67101;DHT22;54019;61.746;16.106;2023-05-07T01:30:16;20.90;24.80
67101;DHT22;54019;61.746;16.106;2023-05-07T01:32:43;21.00;24.80
67101;DHT22;54019;61.746;16.106;2023-05-07T01:35:17;21.00;24.80
67101;DHT22;54019;61.746;16.106;2023-05-07T01:37:44;21.00;24.70
67101;DHT22;54019;61.746;16.106;2023-05-07T01:40:12;21.00;24.60
67101;DHT22;54019;61.746;16.106;2023-05-07T01:42:38;21.00;24.60
67101;DHT22;54019;61.746;16.106;2023-05-07T01:45:05;21.00;24.70
67101;DHT22;54019;61.746;16.106;2023-05-07T01:47:32;20.90;24.70
67101;DHT22;54019;61.746;16.106;2023-05-07T01:49:58;20.90;24.70
67101;DHT22;54019;61.746;16.106;2023-05-07T01:52:24;20.90;24.70
67101;DHT22;54019;61.746;16.106;2023-05-07T01:54:50;20.90;24.70
67101;DHT22;54019;61.746;16.106;2023-05-07T01:57:17;20.90;24.70
67101;DHT22;54019;61.746;16.106;2023-05-07T01:59:43;20.90;24.70
67101;DHT22;54019;61.746;16.106;2023-05-07T02:02:09;20.80;24.50
67101;DHT22;54019;61.746;16.106;2023-05-07T02:04:35;20.80;24.50
67101;DHT22;54019;61.746;16.106;2023-05-07T02:07:00;20.80;24.60
67101;DHT22;54019;61.746;16.106;2023-05-07T02:09:26;20.80;24.40
67101;DHT22;54019;61.746;16.106;2023-05-07T02:11:52;20.80;24.40
67101;DHT22;54019;61.746;16.106;2023-05-07T02:14:19;20.80;24.30
67101;DHT22;54019;61.746;16.106;2023-05-07T02:16:45;20.90;24.50
67101;DHT22;54019;61.746;16.106;2023-05-07T02:19:11;20.90;24.50
67101;DHT22;54019;61.746;16.106;2023-05-07T02:21:36;20.90;24.50
67101;DHT22;54019;61.746;16.106;2023-05-07T02:24:02;20.90;25.10
67101;DHT22;54019;61.746;16.106;2023-05-07T02:26:28;21.00;24.40
67101;DHT22;54019;61.746;16.106;2023-05-07T02:28:54;21.00;24.40
67101;DHT22;54019;61.746;16.106;2023-05-07T02:31:21;21.00;24.40
67101;DHT22;54019;61.746;16.106;2023-05-07T02:33:47;21.00;24.40
67101;DHT22;54019;61.746;16.106;2023-05-07T02:36:13;21.00;24.50
67101;DHT22;54019;61.746;16.106;2023-05-07T02:38:38;21.00;24.50
67101;DHT22;54019;61.746;16.106;2023-05-07T02:41:04;20.90;24.40
67101;DHT22;54019;61.746;16.106;2023-05-07T02:43:30;20.90;24.50
67101;DHT22;54019;61.746;16.106;2023-05-07T02:46:03;20.90;24.40
67101;DHT22;54019;61.746;16.106;2023-05-07T02:48:30;20.90;24.40
67101;DHT22;54019;61.746;16.106;2023-05-07T02:50:56;20.90;24.40
67101;DHT22;54019;61.746;16.106;2023-05-07T02:53:22;20.90;24.40
67101;DHT22;54019;61.746;16.106;2023-05-07T02:55:47;20.80;24.40
67101;DHT22;54019;61.746;16.106;2023-05-07T02:58:13;20.80;24.40
67101;DHT22;54019;61.746;16.106;2023-05-07T03:00:39;20.80;24.20
67101;DHT22;54019;61.746;16.106;2023-05-07T03:03:05;20.80;24.10
67101;DHT22;54019;61.746;16.106;2023-05-07T03:05:32;20.80;24.10
67101;DHT22;54019;61.746;16.106;2023-05-07T03:07:58;20.90;24.10
67101;DHT22;54019;61.746;16.106;2023-05-07T03:10:23;20.90;24.20
67101;DHT22;54019;61.746;16.106;2023-05-07T03:12:49;20.90;24.30
67101;DHT22;54019;61.746;16.106;2023-05-07T03:15:15;21.00;24.20
67101;DHT22;54019;61.746;16.106;2023-05-07T03:17:41;21.00;24.20
67101;DHT22;54019;61.746;16.106;2023-05-07T03:20:07;21.10;24.20
67101;DHT22;54019;61.746;16.106;2023-05-07T03:22:35;21.10;24.10
67101;DHT22;54019;61.746;16.106;2023-05-07T03:25:01;21.10;24.10
67101;DHT22;54019;61.746;16.106;2023-05-07T03:27:26;21.10;24.20
67101;DHT22;54019;61.746;16.106;2023-05-07T03:29:52;21.10;24.20
67101;DHT22;54019;61.746;16.106;2023-05-07T03:32:18;21.10;24.10
67101;DHT22;54019;61.746;16.106;2023-05-07T03:34:44;21.00;24.10
67101;DHT22;54019;61.746;16.106;2023-05-07T03:37:09;21.00;24.10
67101;DHT22;54019;61.746;16.106;2023-05-07T03:39:37;21.00;24.10
67101;DHT22;54019;61.746;16.106;2023-05-07T03:42:03;21.00;24.10
67101;DHT22;54019;61.746;16.106;2023-05-07T03:44:28;21.00;24.10
67101;DHT22;54019;61.746;16.106;2023-05-07T03:46:54;21.00;24.20
67101;DHT22;54019;61.746;16.106;2023-05-07T03:49:20;21.00;24.10
67101;DHT22;54019;61.746;16.106;2023-05-07T03:51:46;21.10;24.00
67101;DHT22;54019;61.746;16.106;2023-05-07T03:54:12;21.10;24.00
67101;DHT22;54019;61.746;16.106;2023-05-07T03:56:39;21.10;24.00
67101;DHT22;54019;61.746;16.106;2023-05-07T03:59:05;21.20;23.90
67101;DHT22;54019;61.746;16.106;2023-05-07T04:01:30;21.20;23.90
67101;DHT22;54019;61.746;16.106;2023-05-07T04:03:56;21.40;23.90
67101;DHT22;54019;61.746;16.106;2023-05-07T04:06:22;21.40;23.80
67101;DHT22;54019;61.746;16.106;2023-05-07T04:08:48;21.50;23.80
67101;DHT22;54019;61.746;16.106;2023-05-07T04:11:13;21.60;23.70
67101;DHT22;54019;61.746;16.106;2023-05-07T04:13:41;21.60;23.60
67101;DHT22;54019;61.746;16.106;2023-05-07T04:16:07;21.60;23.50
67101;DHT22;54019;61.746;16.106;2023-05-07T04:18:33;21.70;23.60
67101;DHT22;54019;61.746;16.106;2023-05-07T04:20:59;21.70;23.60
67101;DHT22;54019;61.746;16.106;2023-05-07T04:23:24;21.70;23.50
67101;DHT22;54019;61.746;16.106;2023-05-07T04:25:50;21.70;23.50
67101;DHT22;54019;61.746;16.106;2023-05-07T04:28:16;21.70;23.50
67101;DHT22;54019;61.746;16.106;2023-05-07T04:30:43;21.70;23.60
67101;DHT22;54019;61.746;16.106;2023-05-07T04:33:09;21.70;23.60
67101;DHT22;54019;61.746;16.106;2023-05-07T04:35:35;21.70;23.60
67101;DHT22;54019;61.746;16.106;2023-05-07T04:38:01;21.60;23.70
67101;DHT22;54019;61.746;16.106;2023-05-07T04:40:27;21.60;23.80
67101;DHT22;54019;61.746;16.106;2023-05-07T04:42:52;21.70;23.90
67101;DHT22;54019;61.746;16.106;2023-05-07T04:45:18;21.70;23.90
67101;DHT22;54019;61.746;16.106;2023-05-07T04:47:45;21.70;23.80
67101;DHT22;54019;61.746;16.106;2023-05-07T04:50:11;21.70;23.70
67101;DHT22;54019;61.746;16.106;2023-05-07T04:52:37;21.80;23.50
67101;DHT22;54019;61.746;16.106;2023-05-07T04:55:03;21.80;23.50
67101;DHT22;54019;61.746;16.106;2023-05-07T04:57:29;21.80;23.70
67101;DHT22;54019;61.746;16.106;2023-05-07T04:59:55;21.90;23.90
67101;DHT22;54019;61.746;16.106;2023-05-07T05:02:20;22.00;23.90
67101;DHT22;54019;61.746;16.106;2023-05-07T05:04:48;22.20;23.70
67101;DHT22;54019;61.746;16.106;2023-05-07T05:07:14;22.40;23.60
67101;DHT22;54019;61.746;16.106;2023-05-07T05:09:39;22.50;24.20
67101;DHT22;54019;61.746;16.106;2023-05-07T05:12:05;22.50;24.20
67101;DHT22;54019;61.746;16.106;2023-05-07T05:14:31;22.60;25.10
67101;DHT22;54019;61.746;16.106;2023-05-07T05:16:57;22.60;24.00
67101;DHT22;54019;61.746;16.106;2023-05-07T05:19:22;22.70;25.60
67101;DHT22;54019;61.746;16.106;2023-05-07T05:21:50;22.70;23.90
67101;DHT22;54019;61.746;16.106;2023-05-07T05:24:15;22.70;23.10
67101;DHT22;54019;61.746;16.106;2023-05-07T05:26:41;22.80;24.00
67101;DHT22;54019;61.746;16.106;2023-05-07T05:29:07;22.90;23.10
67101;DHT22;54019;61.746;16.106;2023-05-07T05:31:33;22.90;23.00
67101;DHT22;54019;61.746;16.106;2023-05-07T05:33:59;22.90;23.30
67101;DHT22;54019;61.746;16.106;2023-05-07T05:36:25;22.80;22.80
67101;DHT22;54019;61.746;16.106;2023-05-07T05:38:52;22.90;22.70
67101;DHT22;54019;61.746;16.106;2023-05-07T05:41:18;22.90;22.70
67101;DHT22;54019;61.746;16.106;2023-05-07T05:43:43;22.80;22.70
67101;DHT22;54019;61.746;16.106;2023-05-07T05:46:09;22.90;22.80
67101;DHT22;54019;61.746;16.106;2023-05-07T05:48:35;22.80;22.60
67101;DHT22;54019;61.746;16.106;2023-05-07T05:51:01;22.90;22.70
67101;DHT22;54019;61.746;16.106;2023-05-07T05:53:27;22.80;22.60
67101;DHT22;54019;61.746;16.106;2023-05-07T05:55:54;22.70;22.80
67101;DHT22;54019;61.746;16.106;2023-05-07T05:58:20;22.70;22.90
67101;DHT22;54019;61.746;16.106;2023-05-07T06:00:46;22.60;23.00
67101;DHT22;54019;61.746;16.106;2023-05-07T06:03:11;22.60;23.10
67101;DHT22;54019;61.746;16.106;2023-05-07T06:05:37;22.50;23.00
67101;DHT22;54019;61.746;16.106;2023-05-07T06:08:03;22.50;23.20
67101;DHT22;54019;61.746;16.106;2023-05-07T06:10:29;22.50;23.30
67101;DHT22;54019;61.746;16.106;2023-05-07T06:12:57;22.50;23.10
67101;DHT22;54019;61.746;16.106;2023-05-07T06:15:22;22.50;23.10
67101;DHT22;54019;61.746;16.106;2023-05-07T06:17:48;22.50;23.10
67101;DHT22;54019;61.746;16.106;2023-05-07T06:20:14;22.50;23.20
67101;DHT22;54019;61.746;16.106;2023-05-07T06:22:40;22.50;23.10
67101;DHT22;54019;61.746;16.106;2023-05-07T06:25:07;22.50;23.20
67101;DHT22;54019;61.746;16.106;2023-05-07T06:27:33;22.40;23.10
67101;DHT22;54019;61.746;16.106;2023-05-07T06:30:00;22.50;23.20
67101;DHT22;54019;61.746;16.106;2023-05-07T06:32:25;22.40;23.10
67101;DHT22;54019;61.746;16.106;2023-05-07T06:34:51;22.40;23.10
67101;DHT22;54019;61.746;16.106;2023-05-07T06:37:17;22.40;23.10
67101;DHT22;54019;61.746;16.106;2023-05-07T06:39:43;22.50;23.10
67101;DHT22;54019;61.746;16.106;2023-05-07T06:42:08;22.50;23.10
67101;DHT22;54019;61.746;16.106;2023-05-07T06:44:34;22.50;23.10
67101;DHT22;54019;61.746;16.106;2023-05-07T06:47:01;22.50;23.10
67101;DHT22;54019;61.746;16.106;2023-05-07T06:49:27;22.50;23.00
67101;DHT22;54019;61.746;16.106;2023-05-07T06:51:53;22.50;23.10
67101;DHT22;54019;61.746;16.106;2023-05-07T06:54:19;22.40;23.10
67101;DHT22;54019;61.746;16.106;2023-05-07T06:56:44;22.50;23.20
67101;DHT22;54019;61.746;16.106;2023-05-07T06:59:10;22.40;23.10
67101;DHT22;54019;61.746;16.106;2023-05-07T07:01:36;22.40;23.20
67101;DHT22;54019;61.746;16.106;2023-05-07T07:04:03;22.40;23.20
67101;DHT22;54019;61.746;16.106;2023-05-07T07:06:29;22.50;23.80
67101;DHT22;54019;61.746;16.106;2023-05-07T07:08:56;22.50;23.80
67101;DHT22;54019;61.746;16.106;2023-05-07T07:11:22;22.50;24.20
67101;DHT22;54019;61.746;16.106;2023-05-07T07:13:48;22.50;23.90
67101;DHT22;54019;61.746;16.106;2023-05-07T07:16:14;22.50;24.10
67101;DHT22;54019;61.746;16.106;2023-05-07T07:18:39;22.60;24.30
67101;DHT22;54019;61.746;16.106;2023-05-07T07:21:06;22.60;24.50
67101;DHT22;54019;61.746;16.106;2023-05-07T07:23:32;22.60;24.50
67101;DHT22;54019;61.746;16.106;2023-05-07T07:25:58;22.60;24.70
67101;DHT22;54019;61.746;16.106;2023-05-07T07:28:24;22.60;24.60
67101;DHT22;54019;61.746;16.106;2023-05-07T07:30:50;22.60;24.10
67101;DHT22;54019;61.746;16.106;2023-05-07T07:33:15;22.60;24.10
67101;DHT22;54019;61.746;16.106;2023-05-07T07:35:41;22.70;24.40
67101;DHT22;54019;61.746;16.106;2023-05-07T07:38:09;22.70;24.70
67101;DHT22;54019;61.746;16.106;2023-05-07T07:40:35;22.70;25.00
67101;DHT22;54019;61.746;16.106;2023-05-07T07:43:01;22.70;25.10
67101;DHT22;54019;61.746;16.106;2023-05-07T07:45:27;22.70;24.90
67101;DHT22;54019;61.746;16.106;2023-05-07T07:47:52;22.80;24.80
67101;DHT22;54019;61.746;16.106;2023-05-07T07:50:18;22.80;25.00
67101;DHT22;54019;61.746;16.106;2023-05-07T07:52:45;22.80;25.00
67101;DHT22;54019;61.746;16.106;2023-05-07T07:55:12;22.80;25.00
67101;DHT22;54019;61.746;16.106;2023-05-07T07:57:38;22.90;25.20
67101;DHT22;54019;61.746;16.106;2023-05-07T08:00:05;22.90;24.70
67101;DHT22;54019;61.746;16.106;2023-05-07T08:02:31;22.90;24.90
67101;DHT22;54019;61.746;16.106;2023-05-07T08:04:56;22.80;24.70
67101;DHT22;54019;61.746;16.106;2023-05-07T08:07:22;22.80;24.70
67101;DHT22;54019;61.746;16.106;2023-05-07T08:09:48;22.80;24.50
67101;DHT22;54019;61.746;16.106;2023-05-07T08:12:15;22.80;24.30
67101;DHT22;54019;61.746;16.106;2023-05-07T08:14:41;22.70;24.10
67101;DHT22;54019;61.746;16.106;2023-05-07T08:17:07;22.70;24.10
67101;DHT22;54019;61.746;16.106;2023-05-07T08:19:33;22.70;24.10
67101;DHT22;54019;61.746;16.106;2023-05-07T08:21:59;22.70;24.00
67101;DHT22;54019;61.746;16.106;2023-05-07T08:24:24;22.70;24.10
67101;DHT22;54019;61.746;16.106;2023-05-07T08:26:50;22.70;24.10
67101;DHT22;54019;61.746;16.106;2023-05-07T08:29:17;22.70;24.10
67101;DHT22;54019;61.746;16.106;2023-05-07T08:31:43;22.70;24.10
67101;DHT22;54019;61.746;16.106;2023-05-07T08:34:09;22.70;24.00
67101;DHT22;54019;61.746;16.106;2023-05-07T08:36:35;22.70;24.00
67101;DHT22;54019;61.746;16.106;2023-05-07T08:39:01;22.70;24.20
67101;DHT22;54019;61.746;16.106;2023-05-07T08:41:26;22.70;24.10
67101;DHT22;54019;61.746;16.106;2023-05-07T08:43:54;22.70;24.20
67101;DHT22;54019;61.746;16.106;2023-05-07T08:46:25;22.70;24.80
67101;DHT22;54019;61.746;16.106;2023-05-07T08:48:52;22.80;24.70
67101;DHT22;54019;61.746;16.106;2023-05-07T08:51:20;22.80;24.30
67101;DHT22;54019;61.746;16.106;2023-05-07T08:53:47;22.80;23.40
67101;DHT22;54019;61.746;16.106;2023-05-07T08:56:13;22.70;23.40
67101;DHT22;54019;61.746;16.106;2023-05-07T08:58:39;22.70;23.50
67101;DHT22;54019;61.746;16.106;2023-05-07T09:01:08;22.70;23.60
67101;DHT22;54019;61.746;16.106;2023-05-07T09:03:37;22.70;23.60
67101;DHT22;54019;61.746;16.106;2023-05-07T09:06:03;22.70;23.60
67101;DHT22;54019;61.746;16.106;2023-05-07T09:08:29;22.70;23.50
67101;DHT22;54019;61.746;16.106;2023-05-07T09:10:55;22.70;23.40
67101;DHT22;54019;61.746;16.106;2023-05-07T09:13:20;22.70;23.50
67101;DHT22;54019;61.746;16.106;2023-05-07T09:15:46;22.70;23.40
67101;DHT22;54019;61.746;16.106;2023-05-07T09:18:12;22.70;23.50
67101;DHT22;54019;61.746;16.106;2023-05-07T09:20:40;22.70;23.40
67101;DHT22;54019;61.746;16.106;2023-05-07T09:23:06;22.70;23.30
67101;DHT22;54019;61.746;16.106;2023-05-07T09:25:33;22.70;23.30
67101;DHT22;54019;61.746;16.106;2023-05-07T09:27:59;22.70;23.30
67101;DHT22;54019;61.746;16.106;2023-05-07T09:30:27;22.70;23.20
67101;DHT22;54019;61.746;16.106;2023-05-07T09:32:53;22.70;23.30
67101;DHT22;54019;61.746;16.106;2023-05-07T09:35:19;22.70;23.20
67101;DHT22;54019;61.746;16.106;2023-05-07T09:37:46;22.70;23.20
67101;DHT22;54019;61.746;16.106;2023-05-07T09:40:20;22.70;23.20
67101;DHT22;54019;61.746;16.106;2023-05-07T09:42:46;22.70;23.10
67101;DHT22;54019;61.746;16.106;2023-05-07T09:45:12;22.70;23.10
67101;DHT22;54019;61.746;16.106;2023-05-07T09:47:39;22.70;23.10
67101;DHT22;54019;61.746;16.106;2023-05-07T09:50:08;22.70;22.90
67101;DHT22;54019;61.746;16.106;2023-05-07T09:52:35;22.70;23.00
67101;DHT22;54019;61.746;16.106;2023-05-07T09:55:04;22.70;22.90
67101;DHT22;54019;61.746;16.106;2023-05-07T09:57:30;22.70;22.90
67101;DHT22;54019;61.746;16.106;2023-05-07T09:59:58;22.70;22.90
67101;DHT22;54019;61.746;16.106;2023-05-07T10:02:25;22.70;23.00
67101;DHT22;54019;61.746;16.106;2023-05-07T10:04:54;22.70;22.90
67101;DHT22;54019;61.746;16.106;2023-05-07T10:07:20;22.70;22.90
67101;DHT22;54019;61.746;16.106;2023-05-07T10:09:47;22.70;22.70
67101;DHT22;54019;61.746;16.106;2023-05-07T10:12:14;22.70;23.40
67101;DHT22;54019;61.746;16.106;2023-05-07T10:14:40;22.70;23.00
67101;DHT22;54019;61.746;16.106;2023-05-07T10:17:07;22.70;23.10
67101;DHT22;54019;61.746;16.106;2023-05-07T10:19:34;22.70;23.10
67101;DHT22;54019;61.746;16.106;2023-05-07T10:22:04;22.70;23.10
67101;DHT22;54019;61.746;16.106;2023-05-07T10:24:32;22.70;23.10
67101;DHT22;54019;61.746;16.106;2023-05-07T10:26:59;22.70;23.10
67101;DHT22;54019;61.746;16.106;2023-05-07T10:29:34;22.70;23.20
67101;DHT22;54019;61.746;16.106;2023-05-07T10:32:19;22.70;23.10
67101;DHT22;54019;61.746;16.106;2023-05-07T10:34:55;22.70;23.40
67101;DHT22;54019;61.746;16.106;2023-05-07T10:37:21;22.70;23.30
67101;DHT22;54019;61.746;16.106;2023-05-07T10:39:48;22.70;23.50
67101;DHT22;54019;61.746;16.106;2023-05-07T10:42:14;22.80;23.50
67101;DHT22;54019;61.746;16.106;2023-05-07T10:44:41;22.80;23.60
67101;DHT22;54019;61.746;16.106;2023-05-07T10:47:08;22.70;23.60
67101;DHT22;54019;61.746;16.106;2023-05-07T10:49:35;22.80;23.70
67101;DHT22;54019;61.746;16.106;2023-05-07T10:52:14;22.80;23.70
67101;DHT22;54019;61.746;16.106;2023-05-07T10:54:40;22.80;24.30
67101;DHT22;54019;61.746;16.106;2023-05-07T10:57:33;22.80;23.70
67101;DHT22;54019;61.746;16.106;2023-05-07T11:00:00;22.80;23.80
67101;DHT22;54019;61.746;16.106;2023-05-07T11:05:26;22.80;23.60
67101;DHT22;54019;61.746;16.106;2023-05-07T11:07:54;22.80;23.60
67101;DHT22;54019;61.746;16.106;2023-05-07T11:10:20;22.90;23.70
67101;DHT22;54019;61.746;16.106;2023-05-07T11:12:55;22.90;23.60
67101;DHT22;54019;61.746;16.106;2023-05-07T11:15:36;22.90;23.70
67101;DHT22;54019;61.746;16.106;2023-05-07T11:18:02;22.80;23.60
67101;DHT22;54019;61.746;16.106;2023-05-07T11:20:47;22.90;23.70
67101;DHT22;54019;61.746;16.106;2023-05-07T11:26:09;22.90;23.70
67101;DHT22;54019;61.746;16.106;2023-05-07T11:28:37;22.90;23.70
67101;DHT22;54019;61.746;16.106;2023-05-07T11:31:05;22.90;23.70
67101;DHT22;54019;61.746;16.106;2023-05-07T11:33:31;22.90;23.70
67101;DHT22;54019;61.746;16.106;2023-05-07T11:35:58;22.90;23.80
67101;DHT22;54019;61.746;16.106;2023-05-07T11:38:25;22.90;23.90
67101;DHT22;54019;61.746;16.106;2023-05-07T11:40:51;22.90;24.00
67101;DHT22;54019;61.746;16.106;2023-05-07T11:43:17;22.90;24.10
67101;DHT22;54019;61.746;16.106;2023-05-07T11:45:44;22.80;24.00
67101;DHT22;54019;61.746;16.106;2023-05-07T11:48:12;22.90;23.90
67101;DHT22;54019;61.746;16.106;2023-05-07T11:50:50;22.80;23.70
67101;DHT22;54019;61.746;16.106;2023-05-07T11:53:15;22.90;23.60
67101;DHT22;54019;61.746;16.106;2023-05-07T11:55:42;22.80;23.50
67101;DHT22;54019;61.746;16.106;2023-05-07T11:58:10;22.90;23.60
67101;DHT22;54019;61.746;16.106;2023-05-07T12:00:35;22.80;23.60
67101;DHT22;54019;61.746;16.106;2023-05-07T12:03:03;22.80;23.60
67101;DHT22;54019;61.746;16.106;2023-05-07T12:05:31;22.90;23.70
67101;DHT22;54019;61.746;16.106;2023-05-07T12:07:57;22.80;23.60
67101;DHT22;54019;61.746;16.106;2023-05-07T12:10:23;22.80;23.70
67101;DHT22;54019;61.746;16.106;2023-05-07T12:12:49;22.80;23.60
67101;DHT22;54019;61.746;16.106;2023-05-07T12:15:18;22.80;23.70
67101;DHT22;54019;61.746;16.106;2023-05-07T12:17:47;22.80;23.80
67101;DHT22;54019;61.746;16.106;2023-05-07T12:20:14;22.80;23.80
67101;DHT22;54019;61.746;16.106;2023-05-07T12:22:41;22.80;23.90
67101;DHT22;54019;61.746;16.106;2023-05-07T12:25:07;22.80;23.90
67101;DHT22;54019;61.746;16.106;2023-05-07T12:27:37;22.80;24.00
67101;DHT22;54019;61.746;16.106;2023-05-07T12:30:03;22.80;24.00
67101;DHT22;54019;61.746;16.106;2023-05-07T12:32:29;22.80;24.00
67101;DHT22;54019;61.746;16.106;2023-05-07T12:34:55;22.80;24.00
67101;DHT22;54019;61.746;16.106;2023-05-07T12:37:23;22.80;24.00
67101;DHT22;54019;61.746;16.106;2023-05-07T12:40:03;22.80;24.00
67101;DHT22;54019;61.746;16.106;2023-05-07T12:42:32;22.70;23.90
67101;DHT22;54019;61.746;16.106;2023-05-07T12:44:58;22.70;23.90
67101;DHT22;54019;61.746;16.106;2023-05-07T12:47:24;22.70;23.80
67101;DHT22;54019;61.746;16.106;2023-05-07T12:49:50;22.70;23.70
67101;DHT22;54019;61.746;16.106;2023-05-07T12:52:16;22.70;23.60
67101;DHT22;54019;61.746;16.106;2023-05-07T12:54:42;22.70;23.50
67101;DHT22;54019;61.746;16.106;2023-05-07T12:57:11;22.70;23.50
67101;DHT22;54019;61.746;16.106;2023-05-07T12:59:39;22.70;23.50
67101;DHT22;54019;61.746;16.106;2023-05-07T13:02:05;22.70;23.60
67101;DHT22;54019;61.746;16.106;2023-05-07T13:04:32;22.70;23.90
67101;DHT22;54019;61.746;16.106;2023-05-07T13:06:58;22.60;23.40
67101;DHT22;54019;61.746;16.106;2023-05-07T13:09:23;22.60;23.40
67101;DHT22;54019;61.746;16.106;2023-05-07T13:11:49;22.60;23.50
67101;DHT22;54019;61.746;16.106;2023-05-07T13:14:16;22.60;23.60
67101;DHT22;54019;61.746;16.106;2023-05-07T13:16:42;22.50;23.60
67101;DHT22;54019;61.746;16.106;2023-05-07T13:19:08;22.50;23.70
67101;DHT22;54019;61.746;16.106;2023-05-07T13:21:34;22.60;23.80
67101;DHT22;54019;61.746;16.106;2023-05-07T13:24:00;22.50;23.80
67101;DHT22;54019;61.746;16.106;2023-05-07T13:26:26;22.50;23.70
67101;DHT22;54019;61.746;16.106;2023-05-07T13:28:53;22.50;24.00
67101;DHT22;54019;61.746;16.106;2023-05-07T13:31:21;22.50;24.30
67101;DHT22;54019;61.746;16.106;2023-05-07T13:33:46;22.50;24.10
67101;DHT22;54019;61.746;16.106;2023-05-07T13:36:12;22.50;24.20
67101;DHT22;54019;61.746;16.106;2023-05-07T13:38:39;22.50;23.90
67101;DHT22;54019;61.746;16.106;2023-05-07T13:41:04;22.40;23.70
67101;DHT22;54019;61.746;16.106;2023-05-07T13:43:30;22.40;23.90
67101;DHT22;54019;61.746;16.106;2023-05-07T13:45:56;22.40;23.90
67101;DHT22;54019;61.746;16.106;2023-05-07T13:48:23;22.30;23.70
67101;DHT22;54019;61.746;16.106;2023-05-07T13:50:49;22.30;23.90
67101;DHT22;54019;61.746;16.106;2023-05-07T13:53:14;22.30;23.80
67101;DHT22;54019;61.746;16.106;2023-05-07T13:55:40;22.30;23.80
67101;DHT22;54019;61.746;16.106;2023-05-07T13:58:06;22.40;23.90
67101;DHT22;54019;61.746;16.106;2023-05-07T14:00:32;22.40;23.70
67101;DHT22;54019;61.746;16.106;2023-05-07T14:02:57;22.40;24.30
67101;DHT22;54019;61.746;16.106;2023-05-07T14:05:25;22.40;23.70
67101;DHT22;54019;61.746;16.106;2023-05-07T14:07:51;22.40;24.00
67101;DHT22;54019;61.746;16.106;2023-05-07T14:10:17;22.50;24.10
67101;DHT22;54019;61.746;16.106;2023-05-07T14:12:44;22.40;24.20
67101;DHT22;54019;61.746;16.106;2023-05-07T14:15:10;22.50;24.40
67101;DHT22;54019;61.746;16.106;2023-05-07T14:17:36;22.50;24.40
67101;DHT22;54019;61.746;16.106;2023-05-07T14:20:02;22.50;24.50
67101;DHT22;54019;61.746;16.106;2023-05-07T14:22:29;22.50;24.40
67101;DHT22;54019;61.746;16.106;2023-05-07T14:24:55;22.50;24.40
67101;DHT22;54019;61.746;16.106;2023-05-07T14:27:21;22.40;24.30
67101;DHT22;54019;61.746;16.106;2023-05-07T14:29:47;22.40;24.10
67101;DHT22;54019;61.746;16.106;2023-05-07T14:32:12;22.40;24.40
67101;DHT22;54019;61.746;16.106;2023-05-07T14:34:38;22.40;24.40
67101;DHT22;54019;61.746;16.106;2023-05-07T14:37:04;22.40;24.50
67101;DHT22;54019;61.746;16.106;2023-05-07T14:39:31;22.40;24.50
67101;DHT22;54019;61.746;16.106;2023-05-07T14:41:57;22.40;24.20
67101;DHT22;54019;61.746;16.106;2023-05-07T14:44:23;22.40;24.10
67101;DHT22;54019;61.746;16.106;2023-05-07T14:46:49;22.40;23.70
67101;DHT22;54019;61.746;16.106;2023-05-07T14:49:14;22.40;23.40
67101;DHT22;54019;61.746;16.106;2023-05-07T14:51:40;22.30;23.00
67101;DHT22;54019;61.746;16.106;2023-05-07T14:54:06;22.30;23.20
67101;DHT22;54019;61.746;16.106;2023-05-07T14:56:34;22.20;23.00
67101;DHT22;54019;61.746;16.106;2023-05-07T14:59:00;22.20;23.20
67101;DHT22;54019;61.746;16.106;2023-05-07T15:01:26;22.20;23.50
67101;DHT22;54019;61.746;16.106;2023-05-07T15:03:51;22.20;23.30
67101;DHT22;54019;61.746;16.106;2023-05-07T15:06:17;22.10;23.10
67101;DHT22;54019;61.746;16.106;2023-05-07T15:08:43;22.10;23.30
67101;DHT22;54019;61.746;16.106;2023-05-07T15:11:09;22.10;23.20
67101;DHT22;54019;61.746;16.106;2023-05-07T15:13:36;22.10;23.20
67101;DHT22;54019;61.746;16.106;2023-05-07T15:16:02;22.10;23.30